Terminal Aerodrome Forecast
Issued by NWS Denver/Boulder, CO

Home | Current Version | Previous Version | Text Only | Print | Product List | Glossary On
Versions: 1 2 3 4 5 6 7 8 9 10 11 12 13 14 15 16 17 18 19 20 21 22 23 24 25 26 27 28 29 30 31 32 33 34 35
000
FTUS45 KBOU 210912 AAB
TAFDEN
TAF AMD
KDEN 210912Z 2109/2212 04008KT 2SM -SN BR OVC004
      TEMPO 2109/2112 1/2SM -SN FG OVC002
     FM211400 34008KT 4SM -RASN SCT005 OVC010
     FM211900 02008KT P6SM SCT015 BKN025
     FM220000 15010KT P6SM SCT025 BKN050
     FM220700 23010KT P6SM FEW050=

USA.gov is the U.S. government's official web portal to all federal, state and local government web resources and services.